createdAt,value
2022-09-12T00:00:23.129Z,75.21
2022-09-12T00:02:54.029Z,75.71
2022-09-12T00:05:21.110Z,75.55
2022-09-12T00:07:47.719Z,75.26
2022-09-12T00:10:14.703Z,74.60
2022-09-12T00:12:41.255Z,75.25
2022-09-12T00:15:08.802Z,78.68
2022-09-12T00:17:36.192Z,79.05
2022-09-12T00:20:04.422Z,78.98
2022-09-12T00:22:30.969Z,76.46
2022-09-12T00:24:59.278Z,76.77
2022-09-12T00:27:27.772Z,77.56
2022-09-12T00:29:55.999Z,79.27
2022-09-12T00:32:25.015Z,79.56
2022-09-12T00:34:52.152Z,80.21
2022-09-12T00:37:19.340Z,77.91
2022-09-12T00:39:48.389Z,77.15
2022-09-12T00:42:15.056Z,76.18
2022-09-12T00:44:45.290Z,76.31
2022-09-12T00:47:19.652Z,75.85
2022-09-12T00:49:57.537Z,76.18
2022-09-12T00:52:37.081Z,77.07
2022-09-12T00:55:11.318Z,78.00
2022-09-12T00:57:44.113Z,78.34
2022-09-12T01:00:18.841Z,78.33
2022-09-12T01:02:57.681Z,78.47
2022-09-12T01:05:24.810Z,76.68
2022-09-12T01:07:51.990Z,75.71
2022-09-12T01:10:19.089Z,77.44
2022-09-12T01:12:45.867Z,76.89
2022-09-12T01:15:13.035Z,77.30
2022-09-12T01:18:13.714Z,76.47
2022-09-12T01:20:55.462Z,76.32
2022-09-12T01:23:24.854Z,77.11
2022-09-12T01:26:15.814Z,77.45
2022-09-12T01:29:15.497Z,76.08
2022-09-12T01:31:52.899Z,78.24
2022-09-12T01:34:28.092Z,78.55
2022-09-12T01:37:17.639Z,78.17
2022-09-12T01:39:51.586Z,76.51
2022-09-12T01:42:27.192Z,75.78
2022-09-12T01:44:59.161Z,76.78
2022-09-12T01:47:31.890Z,77.26
2022-09-12T01:50:25.400Z,76.96
2022-09-12T01:53:18.067Z,76.19
2022-09-12T01:55:50.206Z,76.34
2022-09-12T01:58:26.937Z,76.49
2022-09-12T02:01:07.885Z,76.65
2022-09-12T02:03:52.798Z,76.32
2022-09-12T02:06:23.754Z,77.13
2022-09-12T02:08:55.223Z,77.05
2022-09-12T02:11:21.768Z,77.23
2022-09-12T02:13:55.267Z,76.90
2022-09-12T02:16:35.519Z,76.32
2022-09-12T02:19:11.550Z,76.80
2022-09-12T02:21:40.041Z,77.37
2022-09-12T02:24:08.959Z,78.95
2022-09-12T02:26:41.531Z,78.23
2022-09-12T02:29:08.186Z,78.37
2022-09-12T02:31:45.154Z,77.43
2022-09-12T02:34:34.929Z,76.10
2022-09-12T02:37:13.216Z,77.16
2022-09-12T02:39:44.523Z,77.79
2022-09-12T02:42:11.929Z,76.81
2022-09-12T02:44:38.453Z,77.00
2022-09-12T02:47:06.607Z,76.72
2022-09-12T02:49:33.146Z,77.20
2022-09-12T02:52:01.051Z,77.54
2022-09-12T02:54:28.222Z,77.84
2022-09-12T02:56:54.865Z,77.14
2022-09-12T02:59:22.468Z,76.77
2022-09-12T03:02:16.757Z,76.34
2022-09-12T03:04:49.360Z,76.48
2022-09-12T03:07:37.857Z,75.78
2022-09-12T03:10:16.514Z,76.25
2022-09-12T03:12:52.168Z,76.82
2022-09-12T03:15:51.089Z,76.08
2022-09-12T03:18:26.778Z,76.74
2022-09-12T03:21:18.660Z,76.15
2022-09-12T03:24:05.353Z,76.05
2022-09-12T03:26:37.787Z,77.85
2022-09-12T03:29:05.344Z,76.83
2022-09-12T03:31:31.983Z,76.85
2022-09-12T03:33:59.933Z,76.21
2022-09-12T03:36:28.622Z,76.70
2022-09-12T03:38:55.406Z,76.15
2022-09-12T03:41:22.536Z,75.86
2022-09-12T03:43:49.044Z,75.95
2022-09-12T03:46:15.507Z,76.19
2022-09-12T03:48:42.064Z,75.87
2022-09-12T03:51:09.938Z,75.82
2022-09-12T03:53:36.664Z,76.46
2022-09-12T03:56:10.537Z,76.69
2022-09-12T03:58:37.512Z,76.11
2022-09-12T04:01:12.450Z,77.77
2022-09-12T04:03:45.995Z,75.58
2022-09-12T04:06:14.838Z,76.26
2022-09-12T04:08:42.726Z,76.29
2022-09-12T04:11:12.253Z,76.75
2022-09-12T04:13:40.155Z,77.04
2022-09-12T04:16:07.494Z,76.89
2022-09-12T04:18:35.161Z,76.40
2022-09-12T04:21:09.977Z,76.11
2022-09-12T04:23:36.601Z,76.73
2022-09-12T04:26:06.513Z,77.13
2022-09-12T04:28:34.566Z,78.04
2022-09-12T04:31:07.642Z,77.15
2022-09-12T04:33:35.257Z,76.50
2022-09-12T04:36:06.225Z,77.10
2022-09-12T04:38:33.414Z,77.32
2022-09-12T04:41:00.072Z,76.53
2022-09-12T04:43:26.791Z,76.37
2022-09-12T04:45:53.327Z,76.29
2022-09-12T04:48:19.811Z,78.22
2022-09-12T04:50:46.273Z,77.14
2022-09-12T04:53:12.719Z,77.75
2022-09-12T04:55:39.184Z,77.79
2022-09-12T04:58:05.631Z,77.79
2022-09-12T05:00:32.096Z,77.69
2022-09-12T05:02:58.558Z,77.32
2022-09-12T05:05:25.069Z,78.55
2022-09-12T05:07:51.599Z,77.61
2022-09-12T05:10:18.257Z,77.78
2022-09-12T05:12:44.739Z,77.65
2022-09-12T05:15:11.576Z,78.14
2022-09-12T05:17:38.023Z,78.18
2022-09-12T05:20:04.898Z,77.47
2022-09-12T05:22:31.330Z,78.59
2022-09-12T05:24:57.789Z,77.76
2022-09-12T05:27:24.237Z,77.99
2022-09-12T05:29:51.328Z,78.48
2022-09-12T05:32:17.785Z,78.12
2022-09-12T05:34:44.331Z,78.20
2022-09-12T05:37:10.777Z,77.72
2022-09-12T05:39:37.314Z,78.75
2022-09-12T05:42:04.085Z,77.98
2022-09-12T05:44:30.992Z,79.27
2022-09-12T05:46:57.583Z,78.99
2022-09-12T05:49:24.496Z,78.41
2022-09-12T05:51:51.649Z,78.00
2022-09-12T05:54:20.463Z,77.35
2022-09-12T05:56:47.419Z,76.58
2022-09-12T05:59:17.106Z,77.04
2022-09-12T06:01:44.566Z,77.06
2022-09-12T06:04:12.125Z,78.25
2022-09-12T06:06:41.853Z,78.56
2022-09-12T06:09:08.602Z,78.94
2022-09-12T06:11:37.309Z,79.55
2022-09-12T06:14:04.557Z,79.98
2022-09-12T06:16:33.219Z,79.02
2022-09-12T06:19:06.993Z,79.09
2022-09-12T06:21:35.383Z,79.55
2022-09-12T06:24:02.278Z,78.24
2022-09-12T06:26:29.468Z,78.75
2022-09-12T06:28:57.366Z,78.98
2022-09-12T06:31:28.804Z,79.13
2022-09-12T06:33:56.345Z,78.63
2022-09-12T06:36:24.926Z,79.19
2022-09-12T06:39:02.950Z,78.75
2022-09-12T06:41:31.115Z,78.46
2022-09-12T06:43:58.314Z,77.85
2022-09-12T06:46:25.555Z,78.11
2022-09-12T06:48:52.151Z,79.29
2022-09-12T06:51:20.145Z,78.62
2022-09-12T06:53:47.809Z,78.88
2022-09-12T06:56:19.571Z,79.44
2022-09-12T06:58:47.131Z,80.24
2022-09-12T07:01:15.662Z,79.57
2022-09-12T07:03:42.947Z,79.50
2022-09-12T07:06:11.280Z,79.62
2022-09-12T07:08:39.142Z,80.61
2022-09-12T07:11:35.483Z,81.55
2022-09-12T07:14:04.245Z,80.83
2022-09-12T07:16:31.328Z,80.63
2022-09-12T07:19:02.356Z,78.94
2022-09-12T07:21:29.750Z,80.57
2022-09-12T07:24:00.061Z,78.79
2022-09-12T07:26:28.266Z,81.07
2022-09-12T07:29:07.809Z,80.39
2022-09-12T07:31:39.638Z,79.06
2022-09-12T07:34:06.895Z,80.15
2022-09-12T07:36:33.642Z,78.65
2022-09-12T07:39:00.221Z,78.52
2022-09-12T07:41:28.801Z,77.29
2022-09-12T07:43:57.767Z,77.68
2022-09-12T07:46:25.333Z,78.61
2022-09-12T07:48:52.951Z,76.67
2022-09-12T07:51:19.826Z,74.91
2022-09-12T07:53:47.244Z,74.05
2022-09-12T07:56:14.019Z,75.31
2022-09-12T07:58:41.918Z,75.54
2022-09-12T08:01:09.746Z,73.22
2022-09-12T08:03:36.886Z,71.90
2022-09-12T08:06:08.546Z,71.59
2022-09-12T08:08:35.424Z,70.99
2022-09-12T08:11:05.902Z,71.16
2022-09-12T08:13:33.914Z,71.27
2022-09-12T08:16:04.955Z,70.65
2022-09-12T08:18:32.725Z,69.01
2022-09-12T08:21:04.067Z,66.57
2022-09-12T08:23:30.590Z,66.04
2022-09-12T08:25:58.586Z,64.97
2022-09-12T08:28:25.919Z,61.86
2022-09-12T08:31:00.524Z,59.34
2022-09-12T08:33:32.930Z,60.42
2022-09-12T08:36:15.279Z,59.12
2022-09-12T08:38:44.112Z,59.11
2022-09-12T08:41:30.916Z,58.89
2022-09-12T08:44:22.165Z,59.03
2022-09-12T08:47:13.432Z,59.33
2022-09-12T08:49:51.630Z,58.40
2022-09-12T08:52:22.478Z,57.70
2022-09-12T08:54:50.737Z,59.02
2022-09-12T08:57:18.521Z,59.31
2022-09-12T08:59:46.368Z,58.39
2022-09-12T09:02:25.085Z,56.78
2022-09-12T09:05:14.405Z,57.15
2022-09-12T09:08:08.912Z,56.70
2022-09-12T09:10:58.607Z,57.22
2022-09-12T09:14:22.241Z,56.82
2022-09-12T09:16:50.666Z,57.32
2022-09-12T09:19:28.034Z,54.49
2022-09-12T09:22:01.708Z,55.58
2022-09-12T09:24:43.628Z,55.12
2022-09-12T09:27:47.461Z,56.93
2022-09-12T09:30:19.764Z,56.27
2022-09-12T09:32:51.017Z,56.04
2022-09-12T09:35:24.529Z,55.63
2022-09-12T09:38:22.504Z,56.19
2022-09-12T09:41:18.742Z,55.99
2022-09-12T09:43:45.485Z,57.32
2022-09-12T09:46:12.335Z,57.65
2022-09-12T09:48:42.478Z,57.68
2022-09-12T09:51:09.502Z,56.99
2022-09-12T09:53:52.146Z,57.50
2022-09-12T09:56:35.849Z,58.15
2022-09-12T09:59:16.789Z,56.10
2022-09-12T10:01:50.299Z,56.45
2022-09-12T10:04:19.906Z,57.11
2022-09-12T10:06:46.622Z,57.10
2022-09-12T10:09:27.337Z,56.88
2022-09-12T10:11:55.567Z,57.45
2022-09-12T10:14:38.626Z,56.27
2022-09-12T10:17:33.923Z,55.03
2022-09-12T10:20:17.859Z,56.74
2022-09-12T10:22:47.794Z,56.17
2022-09-12T10:25:16.888Z,56.48
2022-09-12T10:27:43.447Z,57.63
2022-09-12T10:30:20.887Z,58.54
2022-09-12T10:32:54.128Z,56.51
2022-09-12T10:35:25.559Z,54.70
2022-09-12T10:37:58.520Z,55.25
2022-09-12T10:40:27.869Z,55.81
2022-09-12T10:42:57.229Z,54.70
2022-09-12T10:45:29.788Z,55.80
2022-09-12T10:48:02.074Z,55.30
2022-09-12T10:50:40.515Z,54.39
2022-09-12T10:53:28.959Z,54.53
2022-09-12T10:56:04.115Z,55.98
2022-09-12T10:58:58.506Z,56.08
2022-09-12T11:01:41.545Z,55.27
2022-09-12T11:04:08.119Z,54.96
2022-09-12T11:06:47.353Z,55.71
2022-09-12T11:09:40.398Z,55.86
2022-09-12T11:12:38.128Z,54.66
2022-09-12T11:15:35.111Z,53.22
2022-09-12T11:18:34.898Z,51.60
2022-09-12T11:21:13.519Z,51.72
2022-09-12T11:23:59.993Z,52.05
2022-09-12T11:26:39.298Z,52.03
2022-09-12T11:29:15.066Z,52.22
2022-09-12T11:31:47.504Z,51.57
2022-09-12T11:34:20.558Z,50.63
2022-09-12T11:36:57.060Z,51.75
2022-09-12T11:39:36.384Z,52.54
2022-09-12T11:42:05.494Z,53.38
2022-09-12T11:44:37.699Z,53.23
2022-09-12T11:47:10.450Z,52.80
2022-09-12T11:49:47.208Z,51.70
2022-09-12T11:52:16.640Z,52.20
2022-09-12T11:54:53.726Z,52.24
2022-09-12T11:57:20.616Z,51.12
2022-09-12T11:59:57.080Z,52.18
2022-09-12T12:02:28.631Z,51.59
2022-09-12T12:05:05.881Z,51.76
2022-09-12T12:07:43.413Z,50.71
2022-09-12T12:10:23.100Z,50.07
2022-09-12T12:12:50.304Z,49.78
2022-09-12T12:15:17.534Z,51.24
2022-09-12T12:17:44.095Z,51.82
2022-09-12T12:20:17.862Z,52.12
2022-09-12T12:22:54.137Z,53.34
2022-09-12T12:25:29.484Z,52.45
2022-09-12T12:27:59.240Z,51.31
2022-09-12T12:30:31.863Z,49.03
2022-09-12T12:33:27.164Z,50.31
2022-09-12T12:35:59.678Z,51.36
2022-09-12T12:38:31.265Z,49.66
2022-09-12T12:41:16.515Z,50.51
2022-09-12T12:43:48.152Z,51.09
2022-09-12T12:46:18.916Z,51.84
2022-09-12T12:49:06.093Z,51.63
2022-09-12T12:51:43.807Z,50.99
2022-09-12T12:54:50.247Z,49.63
2022-09-12T12:57:16.933Z,48.45
2022-09-12T12:59:58.486Z,48.21
2022-09-12T13:02:40.208Z,48.78
2022-09-12T13:05:17.583Z,50.18
2022-09-12T13:07:44.515Z,49.29
2022-09-12T13:10:25.439Z,49.70
2022-09-12T13:12:52.593Z,49.79
2022-09-12T13:15:47.083Z,50.83
2022-09-12T13:18:18.194Z,50.69
2022-09-12T13:20:49.815Z,50.81
2022-09-12T13:23:31.232Z,49.94
2022-09-12T13:25:59.952Z,50.74
2022-09-12T13:28:28.642Z,51.59
2022-09-12T13:31:17.295Z,50.93
2022-09-12T13:33:48.134Z,50.41
2022-09-12T13:36:30.398Z,51.18
2022-09-12T13:38:56.807Z,49.95
2022-09-12T13:41:57.906Z,48.51
2022-09-12T13:44:24.613Z,48.49
2022-09-12T13:46:51.950Z,49.06
2022-09-12T13:49:30.305Z,50.27
2022-09-12T13:52:08.417Z,50.39
2022-09-12T13:54:41.020Z,49.13
2022-09-12T13:57:21.134Z,48.37
2022-09-12T13:59:50.136Z,49.29
2022-09-12T14:02:22.047Z,50.13
2022-09-12T14:05:09.373Z,51.24
2022-09-12T14:07:53.643Z,50.34
2022-09-12T14:10:26.580Z,50.27
2022-09-12T14:12:56.619Z,50.32
2022-09-12T14:15:31.026Z,50.78
2022-09-12T14:18:01.501Z,50.17
2022-09-12T14:20:32.786Z,49.79
2022-09-12T14:23:08.006Z,50.92
2022-09-12T14:25:41.905Z,51.17
2022-09-12T14:28:13.701Z,50.28
2022-09-12T14:30:41.282Z,51.33
2022-09-12T14:33:10.795Z,51.19
2022-09-12T14:35:43.292Z,52.08
2022-09-12T14:38:16.511Z,51.63
2022-09-12T14:40:48.673Z,51.12
2022-09-12T14:43:21.779Z,51.22
2022-09-12T14:45:53.574Z,51.61
2022-09-12T14:48:20.353Z,51.05
2022-09-12T14:50:52.070Z,52.08
2022-09-12T14:53:18.581Z,51.20
2022-09-12T14:55:57.747Z,51.91
2022-09-12T14:58:26.621Z,51.59
2022-09-12T15:01:20.771Z,51.46
2022-09-12T15:03:49.985Z,51.49
2022-09-12T15:06:36.626Z,51.92
2022-09-12T15:09:06.306Z,51.41
2022-09-12T15:11:33.996Z,52.22
2022-09-12T15:14:13.210Z,51.79
2022-09-12T15:16:39.909Z,51.82
2022-09-12T15:19:06.370Z,51.97
2022-09-12T15:21:33.179Z,52.38
2022-09-12T15:24:00.107Z,52.03
2022-09-12T15:26:30.621Z,52.10
2022-09-12T15:28:57.859Z,52.18
2022-09-12T15:31:24.354Z,51.98
2022-09-12T15:33:51.077Z,52.18
2022-09-12T15:36:20.192Z,52.63
2022-09-12T15:38:47.182Z,51.77
2022-09-12T15:41:20.398Z,53.23
2022-09-12T15:43:47.301Z,53.21
2022-09-12T15:46:15.266Z,53.29
2022-09-12T15:48:41.836Z,53.53
2022-09-12T15:51:16.912Z,53.45
2022-09-12T15:53:44.293Z,53.30
2022-09-12T15:56:11.208Z,53.51
2022-09-12T15:58:49.792Z,53.84
2022-09-12T16:01:24.365Z,54.20
2022-09-12T16:03:51.116Z,53.94
2022-09-12T16:06:18.066Z,53.54
2022-09-12T16:08:44.681Z,53.62
2022-09-12T16:11:19.109Z,54.31
2022-09-12T16:13:45.726Z,54.15
2022-09-12T16:16:13.182Z,54.29
2022-09-12T16:18:40.690Z,54.38
2022-09-12T16:21:10.164Z,55.09
2022-09-12T16:23:42.995Z,54.46
2022-09-12T16:26:09.584Z,54.03
2022-09-12T16:28:36.402Z,55.12
2022-09-12T16:31:05.213Z,54.57
2022-09-12T16:33:32.391Z,55.99
2022-09-12T16:36:06.690Z,55.83
2022-09-12T16:38:34.635Z,56.00
2022-09-12T16:41:06.199Z,56.15
2022-09-12T16:43:34.621Z,56.36
2022-09-12T16:46:11.908Z,56.66
2022-09-12T16:48:42.739Z,56.81
2022-09-12T16:51:09.836Z,57.54
2022-09-12T16:53:37.456Z,57.41
2022-09-12T16:56:05.352Z,56.77
2022-09-12T16:58:35.619Z,56.89
2022-09-12T17:01:09.922Z,57.97
2022-09-12T17:03:36.664Z,58.14
2022-09-12T17:06:10.695Z,58.51
2022-09-12T17:08:38.966Z,58.73
2022-09-12T17:11:08.255Z,59.05
2022-09-12T17:13:53.308Z,59.10
2022-09-12T17:16:22.436Z,59.25
2022-09-12T17:18:49.448Z,59.23
2022-09-12T17:21:16.229Z,59.47
2022-09-12T17:23:43.118Z,59.25
2022-09-12T17:26:10.702Z,59.84
2022-09-12T17:28:38.580Z,60.28
2022-09-12T17:31:12.829Z,60.50
2022-09-12T17:33:39.773Z,60.25
2022-09-12T17:36:12.390Z,60.51
2022-09-12T17:38:43.171Z,61.31
2022-09-12T17:41:11.392Z,61.39
2022-09-12T17:43:40.833Z,61.86
2022-09-12T17:46:07.858Z,61.11
2022-09-12T17:48:34.998Z,60.98
2022-09-12T17:51:13.407Z,60.72
2022-09-12T17:53:43.598Z,60.78
2022-09-12T17:56:10.973Z,60.60
2022-09-12T17:58:37.939Z,61.30
2022-09-12T18:01:25.742Z,61.61
2022-09-12T18:03:56.868Z,61.06
2022-09-12T18:06:24.269Z,61.92
2022-09-12T18:08:50.980Z,61.46
2022-09-12T18:11:17.671Z,61.78
2022-09-12T18:13:44.479Z,61.76
2022-09-12T18:16:12.679Z,61.29
2022-09-12T18:18:40.202Z,61.23
2022-09-12T18:21:08.561Z,62.34
2022-09-12T18:23:37.632Z,62.55
2022-09-12T18:26:34.935Z,63.76
2022-09-12T18:29:01.666Z,63.20
2022-09-12T18:31:29.638Z,64.17
2022-09-12T18:33:57.677Z,64.26
2022-09-12T18:36:24.170Z,63.65
2022-09-12T18:38:51.021Z,64.75
2022-09-12T18:41:22.443Z,64.35
2022-09-12T18:43:49.867Z,64.67
2022-09-12T18:46:18.413Z,64.57
2022-09-12T18:48:45.830Z,64.66
2022-09-12T18:51:17.975Z,63.68
2022-09-12T18:53:52.623Z,63.87
2022-09-12T18:56:19.446Z,63.50
2022-09-12T18:58:50.495Z,63.58
2022-09-12T19:01:20.413Z,63.25
2022-09-12T19:03:47.385Z,63.44
2022-09-12T19:06:17.821Z,64.26
2022-09-12T19:08:45.206Z,63.88
2022-09-12T19:11:11.986Z,64.72
2022-09-12T19:13:40.708Z,64.40
2022-09-12T19:16:09.384Z,64.20
2022-09-12T19:18:37.253Z,64.07
2022-09-12T19:21:04.621Z,64.26
2022-09-12T19:23:32.763Z,64.56
2022-09-12T19:26:01.086Z,64.31
2022-09-12T19:28:28.490Z,64.67
2022-09-12T19:30:55.272Z,64.44
2022-09-12T19:33:22.438Z,64.24
2022-09-12T19:35:49.700Z,65.06
2022-09-12T19:38:16.338Z,64.94
2022-09-12T19:40:42.938Z,65.47
2022-09-12T19:43:09.910Z,64.86
2022-09-12T19:45:36.969Z,65.22
2022-09-12T19:48:03.942Z,64.98
2022-09-12T19:50:33.618Z,64.64
2022-09-12T19:53:00.105Z,64.02
2022-09-12T19:55:26.678Z,64.38
2022-09-12T19:57:53.775Z,64.38
2022-09-12T20:00:20.285Z,65.02
2022-09-12T20:02:50.547Z,64.24
2022-09-12T20:05:17.481Z,64.38
2022-09-12T20:07:43.976Z,64.50
2022-09-12T20:10:10.463Z,65.16
2022-09-12T20:12:37.166Z,64.52
2022-09-12T20:15:04.756Z,64.99
2022-09-12T20:17:31.660Z,65.17
2022-09-12T20:19:58.178Z,64.95
2022-09-12T20:22:24.871Z,65.06
2022-09-12T20:24:51.428Z,65.80
2022-09-12T20:27:17.942Z,64.33
2022-09-12T20:29:44.398Z,64.78
2022-09-12T20:32:10.965Z,64.83
2022-09-12T20:34:37.436Z,64.71
2022-09-12T20:37:03.875Z,64.83
2022-09-12T20:39:30.416Z,64.25
2022-09-12T20:41:56.868Z,64.98
2022-09-12T20:44:23.375Z,64.65
2022-09-12T20:46:49.883Z,64.17
2022-09-12T20:49:16.448Z,64.39
2022-09-12T20:51:42.975Z,63.38
2022-09-12T20:54:10.479Z,63.82
2022-09-12T20:56:37.626Z,63.80
2022-09-12T20:59:05.130Z,63.55
2022-09-12T21:01:31.938Z,62.96
2022-09-12T21:04:00.157Z,62.71
2022-09-12T21:06:26.800Z,63.43
2022-09-12T21:08:56.039Z,62.70
2022-09-12T21:11:22.480Z,63.17
2022-09-12T21:13:49.191Z,63.85
2022-09-12T21:16:18.782Z,63.07
2022-09-12T21:18:46.368Z,63.32
2022-09-12T21:21:14.253Z,62.63
2022-09-12T21:23:41.336Z,63.02
2022-09-12T21:26:08.266Z,62.39
2022-09-12T21:28:35.182Z,62.28
2022-09-12T21:31:01.667Z,61.90
2022-09-12T21:33:28.408Z,62.23
2022-09-12T21:35:55.096Z,62.23
2022-09-12T21:38:21.598Z,62.13
2022-09-12T21:40:48.087Z,61.99
2022-09-12T21:43:15.049Z,62.07
2022-09-12T21:45:41.816Z,61.86
2022-09-12T21:48:08.432Z,61.37
2022-09-12T21:50:34.943Z,62.06
2022-09-12T21:53:01.398Z,62.23
2022-09-12T21:55:28.060Z,62.06
2022-09-12T21:57:55.231Z,62.28
2022-09-12T22:00:22.491Z,62.10
2022-09-12T22:02:49.349Z,61.49
2022-09-12T22:05:17.221Z,62.20
2022-09-12T22:07:43.968Z,61.36
2022-09-12T22:10:10.581Z,61.09
2022-09-12T22:12:37.058Z,61.43
2022-09-12T22:15:22.983Z,62.32
2022-09-12T22:17:50.400Z,62.54
2022-09-12T22:20:16.908Z,62.27
2022-09-12T22:23:02.155Z,61.25
2022-09-12T22:25:28.637Z,62.21
2022-09-12T22:27:55.258Z,62.43
2022-09-12T22:30:22.532Z,62.62
2022-09-12T22:32:50.547Z,62.70
2022-09-12T22:35:18.330Z,62.15
2022-09-12T22:37:44.884Z,62.53
2022-09-12T22:40:11.916Z,62.80
2022-09-12T22:42:38.991Z,62.33
2022-09-12T22:45:07.245Z,62.23
2022-09-12T22:47:34.118Z,62.74
2022-09-12T22:50:00.602Z,62.20
2022-09-12T22:52:27.058Z,61.72
2022-09-12T22:54:53.576Z,62.32
2022-09-12T22:57:20.029Z,62.35
2022-09-12T22:59:46.682Z,61.92
2022-09-12T23:02:13.154Z,63.04
2022-09-12T23:04:40.047Z,63.88
2022-09-12T23:07:06.667Z,63.72
2022-09-12T23:09:35.421Z,64.48
2022-09-12T23:12:02.509Z,65.55
2022-09-12T23:14:29.018Z,65.79
2022-09-12T23:16:55.670Z,66.10
2022-09-12T23:19:22.153Z,66.47
2022-09-12T23:21:48.584Z,66.47
2022-09-12T23:24:15.075Z,66.35
2022-09-12T23:26:41.502Z,66.94
2022-09-12T23:29:08.909Z,66.10
2022-09-12T23:31:35.772Z,65.98
2022-09-12T23:34:06.073Z,65.79
2022-09-12T23:36:33.682Z,65.42
2022-09-12T23:39:00.508Z,65.69
2022-09-12T23:41:27.050Z,65.16
2022-09-12T23:43:53.785Z,66.15
2022-09-12T23:46:21.105Z,66.74
2022-09-12T23:48:48.211Z,65.77
2022-09-12T23:51:15.226Z,66.46
2022-09-12T23:53:41.841Z,66.58
2022-09-12T23:56:08.462Z,66.07
2022-09-12T23:58:34.984Z,67.28
